Time;durP1;ratioP1;P1;durP2;ratioP2;P2;SDS_P1;SDS_P2;PMS_P1;PMS_P2;Temp;Humidity;BMP_temperature;BMP_pressure;BME280_temperature;BME280_humidity;BME280_pressure;Samples;Min_cycle;Max_cycle;Signal;HPM_P1;HPM_P2
2021/11/24 00:02:22;;;;;;;1.43;0.90;;;7.50;99.90;;;;;;5046221;28;20180;-85
2021/11/24 00:04:48;;;;;;;0.27;0.27;;;7.60;99.90;;;;;;5037180;28;20185;-85
2021/11/24 00:07:13;;;;;;;0.50;0.50;;;7.60;99.90;;;;;;5035296;28;20212;-86
2021/11/24 00:09:39;;;;;;;0.60;0.60;;;7.60;99.90;;;;;;5035604;28;20182;-85
2021/11/24 00:12:05;;;;;;;0.37;0.37;;;7.60;99.90;;;;;;5035725;28;20190;-85
2021/11/24 00:14:30;;;;;;;0.83;0.77;;;7.60;99.90;;;;;;5044481;28;20177;-86
2021/11/24 00:16:57;;;;;;;0.30;0.30;;;7.50;99.90;;;;;;5035171;28;20691;-86
2021/11/24 00:19:22;;;;;;;1.50;0.33;;;7.40;99.90;;;;;;5050246;28;20179;-86
2021/11/24 00:21:48;;;;;;;0.27;0.27;;;7.40;99.90;;;;;;5023088;28;20704;-85
2021/11/24 00:24:13;;;;;;;1.23;0.57;;;7.40;99.90;;;;;;5026915;28;20179;-85
2021/11/24 00:26:39;;;;;;;0.47;0.47;;;7.20;99.90;;;;;;5033025;28;20287;-85
2021/11/24 00:29:07;;;;;;;2.20;0.77;;;7.00;99.90;;;;;;5033547;28;20188;-86
2021/11/24 00:31:32;;;;;;;0.50;0.50;;;7.00;99.90;;;;;;5035017;28;20689;-86
2021/11/24 00:34:00;;;;;;;0.63;0.63;;;7.00;99.90;;;;;;5030070;28;20284;-85
2021/11/24 00:36:26;;;;;;;0.57;0.57;;;7.10;99.90;;;;;;5051506;28;20174;-86
2021/11/24 00:38:51;;;;;;;1.10;1.00;;;7.20;99.90;;;;;;5045168;28;20209;-86
2021/11/24 00:41:17;;;;;;;0.83;0.80;;;7.20;99.90;;;;;;5034492;28;20177;-86
2021/11/24 00:43:43;;;;;;;0.27;0.27;;;7.20;99.90;;;;;;5052678;28;20228;-86
2021/11/24 00:46:08;;;;;;;0.40;0.40;;;7.30;99.90;;;;;;5034598;28;20308;-85
2021/11/24 00:48:34;;;;;;;1.30;0.50;;;7.40;99.90;;;;;;5034695;28;20221;-85
2021/11/24 00:50:59;;;;;;;0.87;0.87;;;7.40;99.90;;;;;;5030924;28;20247;-86
2021/11/24 00:53:25;;;;;;;0.53;0.50;;;7.40;99.90;;;;;;5026858;28;20216;-86
2021/11/24 00:55:51;;;;;;;0.70;0.70;;;7.40;99.90;;;;;;5031080;28;20186;-86
2021/11/24 00:58:17;;;;;;;0.70;0.70;;;7.40;99.90;;;;;;5036424;28;20718;-86
2021/11/24 01:00:45;;;;;;;0.60;0.60;;;7.20;99.90;;;;;;5032425;28;20198;-86
2021/11/24 01:03:11;;;;;;;0.70;0.70;;;7.20;99.90;;;;;;5034140;28;20663;-86
2021/11/24 01:05:36;;;;;;;0.73;0.73;;;7.30;99.90;;;;;;5034055;28;20273;-86
2021/11/24 01:08:02;;;;;;;0.40;0.40;;;7.30;99.90;;;;;;5026111;28;20202;-86
2021/11/24 01:10:28;;;;;;;0.53;0.53;;;7.30;99.90;;;;;;5027061;28;20270;-86
2021/11/24 01:12:54;;;;;;;0.60;0.60;;;7.40;99.90;;;;;;5027344;28;20293;-85
2021/11/24 01:15:20;;;;;;;0.47;0.47;;;7.20;99.90;;;;;;5035408;28;20186;-86
2021/11/24 01:17:45;;;;;;;0.30;0.30;;;7.20;99.90;;;;;;5052463;28;20274;-85
2021/11/24 01:20:12;;;;;;;0.87;0.60;;;7.20;99.90;;;;;;5032787;28;20209;-87
2021/11/24 01:22:38;;;;;;;0.50;0.20;;;7.20;99.90;;;;;;5025502;28;20196;-85
2021/11/24 01:25:04;;;;;;;0.40;0.40;;;7.30;99.90;;;;;;5042967;28;20182;-86
2021/11/24 01:27:31;;;;;;;1.20;0.50;;;7.30;99.90;;;;;;5030857;28;20827;-86
2021/11/24 01:29:56;;;;;;;1.90;1.13;;;7.30;99.90;;;;;;5029561;28;20709;-85
2021/11/24 01:32:22;;;;;;;0.60;0.60;;;7.30;99.90;;;;;;5034380;28;20264;-85
2021/11/24 01:34:48;;;;;;;0.17;0.17;;;7.30;99.90;;;;;;5045350;28;20558;-85
2021/11/24 01:37:13;;;;;;;0.63;0.40;;;7.20;99.90;;;;;;5032914;28;20682;-86
2021/11/24 01:39:39;;;;;;;0.87;0.83;;;7.10;99.90;;;;;;5035475;28;20176;-86
2021/11/24 01:42:04;;;;;;;0.83;0.83;;;7.00;99.90;;;;;;5036338;28;20192;-85
2021/11/24 01:44:30;;;;;;;0.30;0.30;;;7.10;99.90;;;;;;5033825;28;20174;-86
2021/11/24 01:46:59;;;;;;;1.17;1.03;;;7.10;99.90;;;;;;5033844;28;20285;-85
2021/11/24 01:49:26;;;;;;;0.10;0.10;;;7.20;99.90;;;;;;5025879;28;20295;-86
2021/11/24 01:51:52;;;;;;;0.10;0.10;;;7.20;99.90;;;;;;5037390;28;20171;-85
2021/11/24 01:54:18;;;;;;;1.10;0.60;;;7.20;99.90;;;;;;5032987;28;20181;-86
2021/11/24 01:56:45;;;;;;;0.50;0.50;;;7.20;99.90;;;;;;5041578;28;20711;-85
2021/11/24 01:59:12;;;;;;;0.40;0.40;;;7.20;99.90;;;;;;5030091;28;20198;-85
2021/11/24 02:01:39;;;;;;;0.73;0.53;;;7.20;99.90;;;;;;5042483;28;20633;-84
2021/11/24 02:04:05;;;;;;;2.87;1.30;;;7.20;99.90;;;;;;5037706;28;20628;-85
2021/11/24 02:06:30;;;;;;;0.77;0.57;;;7.20;99.90;;;;;;5036126;28;20268;-86
2021/11/24 02:08:56;;;;;;;0.83;0.83;;;7.20;99.90;;;;;;5034324;28;20253;-86
2021/11/24 02:11:22;;;;;;;0.20;0.20;;;7.20;99.90;;;;;;5037871;28;20206;-85
2021/11/24 02:13:47;;;;;;;2.33;0.97;;;7.20;99.90;;;;;;5055580;28;20174;-86
2021/11/24 02:16:13;;;;;;;0.50;0.30;;;7.20;99.90;;;;;;5036385;28;20652;-85
2021/11/24 02:18:38;;;;;;;1.27;0.30;;;7.20;99.90;;;;;;5027018;28;20203;-86
2021/11/24 02:21:04;;;;;;;4.17;0.70;;;7.10;99.90;;;;;;5062167;28;20205;-86
2021/11/24 02:23:30;;;;;;;0.20;0.20;;;7.10;99.90;;;;;;5033555;28;20204;-85
2021/11/24 02:25:55;;;;;;;0.70;0.70;;;7.10;99.90;;;;;;5033851;28;20181;-85
2021/11/24 02:28:22;;;;;;;0.67;0.67;;;7.10;99.90;;;;;;5026015;28;20671;-86
2021/11/24 02:30:48;;;;;;;0.13;0.13;;;7.10;99.90;;;;;;5035337;28;20638;-85
2021/11/24 02:33:18;;;;;;;1.00;0.30;;;7.10;99.90;;;;;;5040987;28;20181;-86
2021/11/24 02:35:44;;;;;;;0.23;0.23;;;7.10;99.90;;;;;;5035816;28;20178;-86
2021/11/24 02:38:13;;;;;;;0.43;0.43;;;7.00;99.90;;;;;;5030686;28;20209;-85
2021/11/24 02:40:41;;;;;;;0.40;0.40;;;7.10;99.90;;;;;;5032283;28;20717;-85
2021/11/24 02:43:07;;;;;;;1.00;0.57;;;7.00;99.90;;;;;;5068848;28;20186;-86
2021/11/24 02:45:33;;;;;;;0.60;0.60;;;7.10;99.90;;;;;;5037020;28;20166;-85
2021/11/24 02:47:59;;;;;;;1.20;0.70;;;7.10;99.90;;;;;;5034438;28;20219;-85
2021/11/24 02:50:24;;;;;;;1.17;0.67;;;7.10;99.90;;;;;;5028541;28;20273;-85
2021/11/24 02:52:51;;;;;;;0.37;0.37;;;7.10;99.90;;;;;;5029015;28;20237;-85
2021/11/24 02:55:16;;;;;;;0.53;0.33;;;7.20;99.90;;;;;;5035895;28;20197;-86
2021/11/24 02:57:45;;;;;;;0.47;0.47;;;7.10;99.90;;;;;;5036805;28;20201;-85
2021/11/24 03:00:15;;;;;;;0.40;0.40;;;7.10;99.90;;;;;;5034439;28;20243;-85
2021/11/24 03:02:42;;;;;;;0.10;0.10;;;7.10;99.90;;;;;;5024446;28;20175;-85
2021/11/24 03:05:09;;;;;;;0.93;0.93;;;7.10;99.90;;;;;;5028443;28;20203;-85
2021/11/24 03:07:35;;;;;;;0.10;0.10;;;7.10;99.90;;;;;;5036810;28;20262;-85
2021/11/24 03:10:00;;;;;;;0.40;0.40;;;7.10;99.90;;;;;;5028357;28;20174;-86
2021/11/24 03:12:26;;;;;;;0.10;0.10;;;7.10;99.90;;;;;;5028899;28;20232;-85
2021/11/24 03:14:51;;;;;;;0.20;0.20;;;7.10;99.90;;;;;;5035153;28;20618;-85
2021/11/24 03:17:17;;;;;;;1.03;0.53;;;7.00;99.90;;;;;;5033678;28;20259;-86
2021/11/24 03:19:46;;;;;;;0.83;0.53;;;7.10;99.90;;;;;;5032124;28;20227;-85
2021/11/24 03:22:12;;;;;;;0.60;0.60;;;7.00;99.90;;;;;;5035789;28;20185;-85
2021/11/24 03:24:38;;;;;;;1.20;0.33;;;7.00;99.90;;;;;;5028889;28;20208;-84
2021/11/24 03:27:03;;;;;;;0.40;0.40;;;7.00;99.90;;;;;;5028247;28;20195;-84
2021/11/24 03:29:29;;;;;;;0.30;0.30;;;7.00;99.90;;;;;;5036420;28;20198;-85
2021/11/24 03:31:54;;;;;;;0.50;0.50;;;7.00;99.90;;;;;;5030042;28;20240;-84
2021/11/24 03:34:20;;;;;;;0.43;0.43;;;7.00;99.90;;;;;;5033548;28;20522;-85
2021/11/24 03:36:46;;;;;;;0.40;0.40;;;7.00;99.90;;;;;;5033586;28;20201;-85
2021/11/24 03:39:11;;;;;;;0.63;0.63;;;7.00;99.90;;;;;;5053893;28;20355;-85
2021/11/24 03:41:37;;;;;;;0.43;0.40;;;7.00;99.90;;;;;;5052379;28;20730;-85
2021/11/24 03:44:03;;;;;;;0.57;0.57;;;6.90;99.90;;;;;;5036581;28;20188;-84
2021/11/24 03:46:29;;;;;;;1.30;0.40;;;6.90;99.90;;;;;;5025199;28;20224;-85
2021/11/24 03:48:54;;;;;;;3.73;0.30;;;6.90;99.90;;;;;;5035394;28;20217;-85
2021/11/24 03:51:20;;;;;;;0.43;0.43;;;6.90;99.90;;;;;;5032847;28;20251;-85
2021/11/24 03:53:46;;;;;;;0.37;0.30;;;6.80;99.90;;;;;;5020864;28;20191;-85
2021/11/24 03:56:13;;;;;;;0.30;0.30;;;6.70;99.90;;;;;;5032179;28;20189;-85
2021/11/24 03:58:38;;;;;;;0.47;0.47;;;6.70;99.90;;;;;;5031167;28;20265;-85
2021/11/24 04:01:05;;;;;;;0.30;0.30;;;6.80;99.90;;;;;;5033394;28;20185;-85
2021/11/24 04:03:32;;;;;;;0.70;0.70;;;6.70;99.90;;;;;;5031858;28;20212;-85
2021/11/24 04:05:58;;;;;;;0.40;0.30;;;6.70;99.90;;;;;;5036573;28;20618;-85
2021/11/24 04:08:24;;;;;;;2.53;0.67;;;6.80;99.90;;;;;;5027256;28;20296;-85
2021/11/24 04:10:49;;;;;;;0.70;0.70;;;6.80;99.90;;;;;;5035560;28;20176;-85
2021/11/24 04:13:15;;;;;;;0.40;0.40;;;6.80;99.90;;;;;;5029049;28;20275;-85
2021/11/24 04:15:41;;;;;;;0.67;0.60;;;6.80;99.90;;;;;;5033943;28;20235;-85
2021/11/24 04:18:06;;;;;;;0.70;0.60;;;6.70;99.90;;;;;;5034347;28;20205;-85
2021/11/24 04:20:32;;;;;;;0.90;0.90;;;6.80;99.90;;;;;;5030392;28;20534;-85
2021/11/24 04:22:57;;;;;;;0.40;0.40;;;6.80;99.90;;;;;;5035068;28;20252;-85
2021/11/24 04:25:23;;;;;;;0.30;0.30;;;6.80;99.90;;;;;;5028674;28;20181;-85
2021/11/24 04:27:49;;;;;;;0.57;0.47;;;6.80;99.90;;;;;;5035664;28;20333;-85
2021/11/24 04:30:19;;;;;;;0.30;0.30;;;6.80;99.90;;;;;;5034108;28;20199;-85
2021/11/24 04:32:45;;;;;;;0.30;0.30;;;6.80;99.90;;;;;;5052932;28;20196;-85
2021/11/24 04:35:10;;;;;;;0.40;0.40;;;6.80;99.90;;;;;;5034912;28;20190;-85
2021/11/24 04:37:37;;;;;;;0.47;0.47;;;6.80;99.90;;;;;;5031538;28;20284;-85
2021/11/24 04:40:04;;;;;;;1.07;0.97;;;6.70;99.90;;;;;;5025524;28;20182;-85
2021/11/24 04:42:29;;;;;;;2.47;0.63;;;6.70;99.90;;;;;;5034606;28;20642;-85
2021/11/24 04:44:55;;;;;;;1.37;1.07;;;6.70;99.90;;;;;;5034965;28;20181;-85
2021/11/24 04:47:20;;;;;;;0.57;0.57;;;6.70;99.90;;;;;;5024175;28;20548;-85
2021/11/24 04:49:46;;;;;;;0.67;0.67;;;6.70;99.90;;;;;;5046780;28;20656;-85
2021/11/24 04:52:12;;;;;;;0.50;0.50;;;6.80;99.90;;;;;;5042112;28;20188;-85
2021/11/24 04:54:37;;;;;;;0.90;0.80;;;6.70;99.90;;;;;;5029432;28;20178;-85
2021/11/24 04:57:04;;;;;;;0.40;0.40;;;6.80;99.90;;;;;;5036683;28;20202;-86
2021/11/24 04:59:29;;;;;;;0.30;0.30;;;6.70;99.90;;;;;;5030513;28;20652;-84
2021/11/24 05:01:56;;;;;;;0.27;0.27;;;6.70;99.90;;;;;;5030729;28;20186;-84
2021/11/24 05:04:22;;;;;;;0.30;0.30;;;6.70;99.90;;;;;;5019253;28;20552;-84
2021/11/24 05:06:48;;;;;;;1.83;0.50;;;6.70;99.90;;;;;;5025547;28;20672;-84
2021/11/24 05:09:14;;;;;;;0.30;0.30;;;6.70;99.90;;;;;;5032502;28;20268;-84
2021/11/24 05:11:40;;;;;;;0.30;0.30;;;6.70;99.90;;;;;;5027839;28;20183;-84
2021/11/24 05:14:07;;;;;;;1.30;0.77;;;6.60;99.90;;;;;;5052202;28;20262;-84
2021/11/24 05:16:36;;;;;;;1.23;1.23;;;6.70;99.90;;;;;;5034464;28;20226;-85
2021/11/24 05:19:03;;;;;;;0.20;0.20;;;6.70;99.90;;;;;;5024517;28;20248;-85
2021/11/24 05:21:36;;;;;;;0.20;0.20;;;6.70;99.90;;;;;;5030912;28;20178;-85
2021/11/24 05:24:03;;;;;;;0.10;0.10;;;6.60;99.90;;;;;;5031103;28;20177;-85
2021/11/24 05:26:30;;;;;;;0.43;0.43;;;6.60;99.90;;;;;;5035065;28;20182;-84
2021/11/24 05:28:56;;;;;;;0.80;0.70;;;6.70;99.90;;;;;;5030671;28;20208;-84
2021/11/24 05:31:23;;;;;;;0.40;0.40;;;6.70;99.90;;;;;;5037762;28;20266;-85
2021/11/24 05:33:49;;;;;;;0.90;0.90;;;6.70;99.90;;;;;;5030214;28;20189;-85
2021/11/24 05:36:16;;;;;;;0.70;0.33;;;6.70;99.90;;;;;;5037108;28;20194;-85
2021/11/24 05:38:42;;;;;;;0.30;0.30;;;6.60;99.90;;;;;;5032392;28;20205;-84
2021/11/24 05:41:08;;;;;;;0.73;0.73;;;6.60;99.90;;;;;;5033318;28;20178;-84
2021/11/24 05:43:34;;;;;;;0.20;0.20;;;6.50;99.90;;;;;;5050717;28;20192;-85
2021/11/24 05:46:10;;;;;;;1.13;0.90;;;6.30;99.90;;;;;;5049906;28;20232;-84
2021/11/24 05:48:37;;;;;;;0.50;0.40;;;6.30;99.90;;;;;;5055119;28;20757;-85
2021/11/24 05:51:03;;;;;;;1.37;1.30;;;6.40;99.90;;;;;;5029438;28;20269;-85
2021/11/24 05:53:29;;;;;;;0.97;0.43;;;6.50;99.90;;;;;;5028066;28;20175;-85
2021/11/24 05:55:54;;;;;;;0.40;0.40;;;6.50;99.90;;;;;;5030002;28;20264;-85
2021/11/24 05:58:21;;;;;;;0.27;0.27;;;6.50;99.90;;;;;;5037503;28;20204;-85
2021/11/24 06:00:47;;;;;;;0.93;0.93;;;6.50;99.90;;;;;;5049738;28;20177;-84
2021/11/24 06:03:13;;;;;;;0.43;0.27;;;6.50;99.90;;;;;;5037671;28;20639;-83
2021/11/24 06:05:38;;;;;;;2.10;0.67;;;6.30;99.90;;;;;;5038782;28;20188;-83
2021/11/24 06:08:04;;;;;;;1.43;0.80;;;6.20;99.90;;;;;;5054663;28;20209;-83
2021/11/24 06:10:30;;;;;;;3.67;0.53;;;6.00;99.90;;;;;;5034628;28;20186;-83
2021/11/24 06:12:56;;;;;;;0.77;0.57;;;5.80;99.90;;;;;;5049031;28;20297;-83
2021/11/24 06:15:22;;;;;;;0.50;0.33;;;5.80;99.90;;;;;;5034893;28;20195;-85
2021/11/24 06:17:48;;;;;;;1.53;0.50;;;5.90;99.90;;;;;;5037212;28;20243;-85
2021/11/24 06:20:16;;;;;;;0.57;0.57;;;5.80;99.90;;;;;;5029351;28;20268;-84
2021/11/24 06:22:43;;;;;;;0.60;0.60;;;5.80;99.90;;;;;;5035122;28;20255;-84
2021/11/24 06:25:11;;;;;;;0.83;0.83;;;6.00;99.90;;;;;;5052372;28;20183;-83
2021/11/24 06:27:37;;;;;;;0.67;0.67;;;6.10;99.90;;;;;;5052371;28;20194;-84
2021/11/24 06:30:04;;;;;;;0.97;0.87;;;5.90;99.90;;;;;;5037568;28;20206;-84
2021/11/24 06:32:31;;;;;;;1.17;1.17;;;6.10;99.90;;;;;;5047781;28;20189;-83
2021/11/24 06:34:57;;;;;;;0.53;0.30;;;6.20;99.90;;;;;;5056078;28;20182;-84
2021/11/24 06:37:22;;;;;;;0.37;0.37;;;6.20;99.90;;;;;;5033507;28;20292;-84
2021/11/24 06:39:48;;;;;;;0.80;0.80;;;6.40;99.90;;;;;;5030827;28;20221;-84
2021/11/24 06:42:15;;;;;;;0.43;0.40;;;6.30;99.90;;;;;;5037003;28;20240;-84
2021/11/24 06:44:41;;;;;;;0.57;0.57;;;6.30;99.90;;;;;;5036633;28;20184;-84
2021/11/24 06:47:06;;;;;;;0.47;0.40;;;6.40;99.90;;;;;;5028671;28;20319;-82
2021/11/24 06:49:32;;;;;;;2.53;1.07;;;6.50;99.90;;;;;;5040128;28;20199;-82
2021/11/24 06:51:57;;;;;;;0.40;0.40;;;6.30;99.90;;;;;;5037296;28;20174;-81
2021/11/24 06:54:23;;;;;;;0.50;0.50;;;6.20;99.90;;;;;;5043636;28;20189;-81
2021/11/24 06:56:50;;;;;;;1.20;0.80;;;6.20;99.90;;;;;;5034655;28;20232;-82
2021/11/24 06:59:17;;;;;;;0.40;0.40;;;6.00;99.90;;;;;;5036846;28;20201;-82
2021/11/24 07:01:43;;;;;;;1.83;1.70;;;6.00;99.90;;;;;;5027707;28;20183;-83
2021/11/24 07:04:09;;;;;;;0.83;0.77;;;6.20;99.90;;;;;;5055101;28;20188;-82
2021/11/24 07:06:35;;;;;;;0.30;0.30;;;6.20;99.90;;;;;;5037574;28;20790;-82
2021/11/24 07:09:03;;;;;;;0.63;0.47;;;6.30;99.90;;;;;;5038567;28;20253;-82
2021/11/24 07:11:31;;;;;;;0.27;0.27;;;6.20;99.90;;;;;;5042378;28;20994;-82
2021/11/24 07:13:57;;;;;;;1.93;0.73;;;6.10;99.90;;;;;;5039893;28;20190;-82
2021/11/24 07:16:23;;;;;;;0.40;0.40;;;6.20;99.90;;;;;;5042460;28;20598;-82
2021/11/24 07:18:49;;;;;;;0.70;0.70;;;6.30;99.90;;;;;;5037569;28;20301;-82
2021/11/24 07:21:15;;;;;;;0.50;0.50;;;6.40;99.90;;;;;;5039180;28;20187;-83
2021/11/24 07:23:41;;;;;;;1.53;0.97;;;6.30;99.90;;;;;;5034986;28;20263;-81
2021/11/24 07:26:08;;;;;;;0.37;0.33;;;6.30;99.90;;;;;;5049957;28;20191;-82
2021/11/24 07:28:33;;;;;;;0.60;0.60;;;6.50;99.90;;;;;;5037438;28;20241;-82
2021/11/24 07:31:00;;;;;;;0.33;0.33;;;6.60;99.90;;;;;;5032171;28;20182;-82
2021/11/24 07:33:25;;;;;;;1.37;0.40;;;6.70;99.90;;;;;;5041624;28;20181;-82
2021/11/24 07:35:52;;;;;;;0.20;0.20;;;6.80;99.90;;;;;;5032574;28;20235;-82
2021/11/24 07:38:18;;;;;;;0.40;0.40;;;6.90;99.90;;;;;;5033008;28;20222;-82
2021/11/24 07:40:43;;;;;;;0.30;0.30;;;7.00;99.90;;;;;;5032274;28;20183;-82
2021/11/24 07:43:11;;;;;;;1.93;0.77;;;7.00;99.90;;;;;;5060169;28;20665;-82
2021/11/24 07:45:37;;;;;;;0.90;0.80;;;7.10;99.90;;;;;;5058218;28;20193;-82
2021/11/24 07:48:03;;;;;;;0.30;0.30;;;7.10;99.90;;;;;;5038864;28;20224;-82
2021/11/24 07:50:28;;;;;;;1.37;0.70;;;7.10;99.90;;;;;;5037887;28;20243;-82
2021/11/24 07:52:55;;;;;;;0.73;0.37;;;6.90;99.90;;;;;;5038118;28;20721;-82
2021/11/24 07:55:21;;;;;;;0.97;0.87;;;6.70;99.90;;;;;;5029883;28;20250;-82
2021/11/24 07:57:46;;;;;;;0.40;0.40;;;6.50;99.90;;;;;;5036846;28;20211;-83
2021/11/24 08:00:13;;;;;;;0.50;0.33;;;6.50;99.90;;;;;;5053251;28;20231;-82
2021/11/24 08:02:40;;;;;;;1.60;0.93;;;6.70;99.90;;;;;;5038373;28;20191;-81
2021/11/24 08:05:06;;;;;;;0.67;0.67;;;6.60;99.90;;;;;;5039434;28;20182;-83
2021/11/24 08:07:32;;;;;;;0.60;0.60;;;6.60;99.90;;;;;;5036628;28;21045;-82
2021/11/24 08:10:01;;;;;;;6.43;0.50;;;6.90;99.90;;;;;;5033714;28;20189;-81
2021/11/24 08:12:26;;;;;;;0.63;0.57;;;6.80;99.90;;;;;;5024430;28;20189;-84
2021/11/24 08:14:52;;;;;;;0.77;0.73;;;6.40;99.90;;;;;;5025274;28;20720;-85
2021/11/24 08:17:18;;;;;;;0.43;0.43;;;6.30;99.90;;;;;;5034741;28;20194;-85
2021/11/24 08:19:45;;;;;;;1.67;0.40;;;6.20;99.90;;;;;;5022365;28;20205;-84
2021/11/24 08:22:11;;;;;;;3.20;2.30;;;6.10;99.90;;;;;;5034098;28;20212;-84
2021/11/24 08:24:36;;;;;;;1.13;0.77;;;5.90;99.90;;;;;;5034181;28;20174;-85
2021/11/24 08:27:03;;;;;;;0.77;0.77;;;5.90;99.90;;;;;;5054158;28;20347;-83
2021/11/24 08:29:29;;;;;;;0.80;0.80;;;5.80;99.90;;;;;;5031264;28;20322;-91
2021/11/24 08:31:55;;;;;;;0.50;0.50;;;5.90;99.90;;;;;;5024808;28;20200;-82
2021/11/24 08:34:21;;;;;;;0.40;0.40;;;6.00;99.90;;;;;;5033809;28;21329;-82
2021/11/24 08:36:49;;;;;;;0.57;0.57;;;6.00;99.90;;;;;;5035693;28;20205;-81
2021/11/24 08:39:15;;;;;;;0.50;0.50;;;6.00;99.90;;;;;;5035385;28;20277;-82
2021/11/24 08:41:41;;;;;;;0.63;0.57;;;6.10;99.90;;;;;;5049373;28;20189;-84
2021/11/24 08:44:07;;;;;;;1.03;0.97;;;6.40;99.90;;;;;;5034264;28;20185;-82
2021/11/24 08:46:32;;;;;;;0.43;0.43;;;6.60;99.90;;;;;;5032323;28;20186;-82
2021/11/24 08:48:58;;;;;;;0.50;0.50;;;6.30;99.90;;;;;;5037469;28;20201;-83
2021/11/24 08:51:23;;;;;;;0.70;0.70;;;6.40;99.90;;;;;;5039229;28;20185;-83
2021/11/24 08:53:49;;;;;;;0.47;0.47;;;6.60;99.90;;;;;;5039744;28;20177;-83
2021/11/24 08:56:15;;;;;;;0.50;0.50;;;6.60;99.90;;;;;;5064933;28;20192;-82
2021/11/24 08:58:40;;;;;;;0.70;0.70;;;6.30;99.90;;;;;;5039868;28;20263;-82
2021/11/24 09:01:07;;;;;;;0.80;0.53;;;6.30;99.90;;;;;;5031897;28;20301;-83
2021/11/24 09:03:32;;;;;;;0.93;0.53;;;6.30;99.90;;;;;;5038826;28;20178;-83
2021/11/24 09:05:59;;;;;;;0.40;0.40;;;6.50;99.90;;;;;;5050218;28;20179;-82
2021/11/24 09:08:25;;;;;;;1.30;0.40;;;6.50;99.90;;;;;;5033703;28;20206;-83
2021/11/24 09:10:51;;;;;;;0.40;0.40;;;6.40;99.90;;;;;;5039838;28;20189;-82
2021/11/24 09:13:16;;;;;;;3.80;0.40;;;6.30;99.90;;;;;;5036598;28;20185;-82
2021/11/24 09:15:42;;;;;;;0.40;0.40;;;6.60;99.90;;;;;;5035197;28;20281;-83
2021/11/24 09:18:08;;;;;;;0.67;0.67;;;6.70;99.90;;;;;;5035272;28;20219;-84
2021/11/24 09:20:34;;;;;;;0.50;0.50;;;7.00;99.90;;;;;;5046588;28;20178;-85
2021/11/24 09:23:02;;;;;;;0.23;0.20;;;7.10;99.90;;;;;;5033444;28;20180;-82
2021/11/24 09:25:36;;;;;;;1.80;0.40;;;7.20;99.90;;;;;;5049379;28;20190;-84
2021/11/24 09:28:13;;;;;;;1.73;1.63;;;7.10;99.90;;;;;;5029066;28;20198;-84
2021/11/24 09:30:41;;;;;;;1.17;0.60;;;6.90;99.90;;;;;;5045903;28;20173;-84
2021/11/24 09:33:07;;;;;;;0.23;0.23;;;6.60;99.90;;;;;;5044611;28;20272;-84
2021/11/24 09:35:33;;;;;;;1.15;1.05;;;6.50;99.90;;;;;;5049423;28;20455;-83
2021/11/24 09:38:00;;;;;;;0.10;0.10;;;6.60;99.90;;;;;;5032246;28;20240;-85
2021/11/24 09:40:26;;;;;;;0.40;0.40;;;6.80;99.90;;;;;;5037376;28;20216;-81
2021/11/24 09:42:58;;;;;;;0.30;0.30;;;7.10;99.90;;;;;;5033799;28;20188;-83
2021/11/24 09:45:24;;;;;;;0.30;0.30;;;7.00;99.90;;;;;;5049869;28;20189;-83
2021/11/24 09:47:54;;;;;;;0.63;0.20;;;7.30;99.90;;;;;;5028334;28;20305;-83
2021/11/24 09:50:23;;;;;;;1.37;0.27;;;7.50;99.90;;;;;;5031569;28;20193;-83
2021/11/24 09:52:49;;;;;;;0.67;0.67;;;7.40;99.90;;;;;;5031445;28;20186;-84
2021/11/24 09:55:15;;;;;;;0.20;0.20;;;7.50;99.90;;;;;;5030608;28;20861;-81
2021/11/24 09:57:41;;;;;;;1.03;0.50;;;7.40;99.90;;;;;;5026489;28;20234;-82
2021/11/24 10:00:07;;;;;;;0.27;0.27;;;7.20;99.90;;;;;;5042326;28;20560;-81
2021/11/24 10:02:36;;;;;;;0.40;0.40;;;7.20;99.90;;;;;;5023983;28;21060;-82
2021/11/24 10:05:02;;;;;;;0.50;0.50;;;7.50;99.90;;;;;;5024758;28;20184;-81
2021/11/24 10:07:28;;;;;;;1.07;1.07;;;7.10;99.90;;;;;;5031675;28;20195;-82
2021/11/24 10:09:53;;;;;;;0.80;0.80;;;6.80;99.90;;;;;;5051250;28;20207;-81
2021/11/24 10:12:19;;;;;;;2.00;0.70;;;6.90;99.90;;;;;;5038076;28;20272;-81
2021/11/24 10:14:45;;;;;;;1.20;0.57;;;7.10;99.90;;;;;;5058501;28;20182;-81
2021/11/24 10:17:15;;;;;;;0.67;0.40;;;7.10;99.90;;;;;;5039236;28;20208;-82
2021/11/24 10:19:57;;;;;;;1.80;0.83;;;7.30;99.90;;;;;;5037483;28;20214;-82
2021/11/24 10:22:22;;;;;;;0.47;0.47;;;7.00;99.90;;;;;;5036777;28;20638;-81
2021/11/24 10:24:53;;;;;;;0.97;0.40;;;6.90;99.90;;;;;;5036019;28;20232;-81
2021/11/24 10:27:33;;;;;;;0.30;0.30;;;6.80;99.90;;;;;;5031736;28;20216;-82
2021/11/24 10:29:58;;;;;;;0.50;0.43;;;6.90;99.90;;;;;;5055314;28;20226;-82
2021/11/24 10:32:27;;;;;;;1.00;0.40;;;6.90;99.90;;;;;;5041387;28;20249;-83
2021/11/24 10:34:55;;;;;;;0.40;0.40;;;7.30;99.90;;;;;;5059793;28;20173;-81
2021/11/24 10:37:22;;;;;;;0.23;0.20;;;7.20;99.90;;;;;;5041348;28;20249;-81
2021/11/24 10:39:48;;;;;;;0.30;0.20;;;7.10;99.90;;;;;;5035629;28;20178;-82
2021/11/24 10:42:23;;;;;;;0.27;0.27;;;7.20;99.90;;;;;;5057055;28;20189;-81
2021/11/24 10:44:57;;;;;;;2.07;0.70;;;7.50;99.90;;;;;;5041730;28;20178;-82
2021/11/24 10:47:29;;;;;;;0.20;0.20;;;7.80;99.90;;;;;;5059198;28;20196;-81
2021/11/24 10:50:00;;;;;;;0.40;0.37;;;7.80;99.90;;;;;;5038145;28;20190;-81
2021/11/24 10:52:34;;;;;;;0.33;0.30;;;7.60;99.90;;;;;;5052836;28;20194;-81
2021/11/24 10:55:10;;;;;;;0.47;0.40;;;7.60;99.90;;;;;;5056460;28;20224;-82
2021/11/24 10:57:38;;;;;;;0.37;0.37;;;7.40;99.90;;;;;;5028448;28;20223;-82
2021/11/24 11:00:15;;;;;;;0.30;0.30;;;7.60;99.90;;;;;;5033796;28;20178;-82
2021/11/24 11:02:47;;;;;;;0.50;0.50;;;7.30;99.90;;;;;;5037629;28;20590;-82
2021/11/24 11:05:24;;;;;;;0.80;0.40;;;7.30;99.90;;;;;;5025372;28;20196;-82
2021/11/24 11:07:49;;;;;;;0.73;0.40;;;6.90;99.90;;;;;;5044101;28;20228;-81
2021/11/24 11:10:20;;;;;;;0.10;0.10;;;6.70;99.90;;;;;;5042134;28;20568;-81
2021/11/24 11:12:52;;;;;;;0.30;0.30;;;6.70;99.90;;;;;;5036322;28;20178;-81
2021/11/24 11:15:23;;;;;;;0.10;0.10;;;6.60;99.90;;;;;;5037096;28;20577;-82
2021/11/24 11:17:52;;;;;;;0.23;0.23;;;6.60;99.90;;;;;;5057250;28;20269;-82
2021/11/24 11:20:19;;;;;;;0.00;0.00;;;6.70;99.90;;;;;;5039037;28;20173;-82
2021/11/24 11:22:45;;;;;;;0.10;0.10;;;6.60;99.90;;;;;;5052251;28;20228;-81
2021/11/24 11:25:11;;;;;;;0.10;0.10;;;6.50;99.90;;;;;;5033636;28;20174;-82
2021/11/24 11:27:39;;;;;;;0.97;0.20;;;6.40;99.90;;;;;;5041027;28;20198;-82
2021/11/24 11:30:05;;;;;;;0.40;0.40;;;6.40;99.90;;;;;;5035565;28;20186;-82
2021/11/24 11:32:31;;;;;;;0.30;0.30;;;6.30;99.90;;;;;;5038252;28;20327;-83
2021/11/24 11:34:57;;;;;;;0.10;0.10;;;6.30;99.90;;;;;;5036446;28;20178;-84
2021/11/24 11:37:23;;;;;;;0.30;0.30;;;6.10;99.90;;;;;;5035615;28;20236;-84
2021/11/24 11:39:49;;;;;;;0.20;0.20;;;6.20;99.90;;;;;;5036366;28;20746;-84
2021/11/24 11:42:18;;;;;;;0.00;0.00;;;6.20;99.90;;;;;;5035009;28;20264;-84
2021/11/24 11:44:44;;;;;;;0.10;0.10;;;6.10;99.90;;;;;;5029173;28;20652;-84
2021/11/24 11:47:09;;;;;;;0.13;0.13;;;6.10;99.90;;;;;;5033268;28;20230;-83
2021/11/24 11:49:37;;;;;;;0.10;0.10;;;6.10;99.90;;;;;;5031799;28;20761;-84
2021/11/24 11:52:11;;;;;;;1.40;0.10;;;6.30;99.90;;;;;;5054422;28;20178;-84
2021/11/24 11:54:36;;;;;;;0.10;0.10;;;6.40;99.90;;;;;;5036993;28;20189;-84
2021/11/24 11:57:14;;;;;;;0.10;0.10;;;6.40;99.90;;;;;;5036358;28;20192;-84
2021/11/24 11:59:40;;;;;;;0.10;0.10;;;6.40;99.90;;;;;;5067959;28;20208;-84
2021/11/24 12:02:07;;;;;;;0.10;0.10;;;6.40;99.90;;;;;;5038546;28;20192;-84
2021/11/24 12:04:46;;;;;;;0.10;0.10;;;6.70;99.90;;;;;;5029293;28;20242;-83
2021/11/24 12:07:16;;;;;;;0.10;0.10;;;6.70;99.90;;;;;;5036235;28;20276;-84
2021/11/24 12:09:46;;;;;;;0.10;0.10;;;6.80;99.90;;;;;;5036062;28;20595;-84
2021/11/24 12:12:18;;;;;;;0.10;0.10;;;7.00;99.90;;;;;;5030253;28;20567;-84
2021/11/24 12:14:50;;;;;;;0.10;0.10;;;7.00;99.90;;;;;;5036269;28;20184;-84
2021/11/24 12:17:34;;;;;;;0.10;0.10;;;7.00;99.90;;;;;;5027419;28;20201;-84
2021/11/24 12:20:04;;;;;;;0.10;0.10;;;7.20;99.90;;;;;;5027565;28;20185;-84
2021/11/24 12:22:48;;;;;;;0.23;0.20;;;6.90;99.90;;;;;;5023238;28;20223;-84
2021/11/24 12:25:20;;;;;;;0.10;0.10;;;6.90;99.90;;;;;;5027247;28;20178;-85
2021/11/24 12:27:52;;;;;;;0.10;0.10;;;7.10;99.90;;;;;;5036106;28;20209;-84
2021/11/24 12:30:40;;;;;;;0.20;0.17;;;7.20;99.90;;;;;;5035739;28;20201;-84
2021/11/24 12:33:16;;;;;;;0.10;0.10;;;7.00;99.90;;;;;;5035340;28;20185;-84
2021/11/24 12:36:11;;;;;;;0.10;0.10;;;6.90;99.90;;;;;;5030017;28;20552;-84
2021/11/24 12:38:42;;;;;;;0.10;0.10;;;7.10;99.90;;;;;;5052986;28;20211;-85
2021/11/24 12:41:09;;;;;;;0.10;0.10;;;7.10;99.90;;;;;;5035883;28;20677;-84
2021/11/24 12:43:38;;;;;;;0.10;0.10;;;6.80;99.90;;;;;;5035427;28;20789;-84
2021/11/24 12:46:18;;;;;;;0.40;0.40;;;6.60;99.90;;;;;;5042479;28;20733;-84
2021/11/24 12:48:53;;;;;;;0.10;0.10;;;6.60;99.90;;;;;;5035514;28;20192;-84
2021/11/24 12:51:27;;;;;;;0.10;0.10;;;6.60;99.90;;;;;;5035231;28;20600;-85
2021/11/24 12:53:58;;;;;;;0.10;0.10;;;6.60;99.90;;;;;;5036938;28;20337;-84
2021/11/24 12:56:27;;;;;;;0.20;0.20;;;6.60;99.90;;;;;;5030469;28;20268;-84
2021/11/24 12:58:57;;;;;;;1.23;0.30;;;6.80;99.90;;;;;;5042915;28;20229;-84